sensor_id;sensor_type;location;lat;lon;timestamp;pressure;altitude;pressure_sealevel;temperature;humidity
51439;BME280;38816;51.142;-0.974;2023-07-24T00:00:23;98927.19;;;15.24;100.00
51439;BME280;38816;51.142;-0.974;2023-07-24T00:02:48;98927.13;;;15.26;100.00
51439;BME280;38816;51.142;-0.974;2023-07-24T00:05:14;98928.06;;;15.23;100.00
51439;BME280;38816;51.142;-0.974;2023-07-24T00:07:40;98923.81;;;15.20;100.00
51439;BME280;38816;51.142;-0.974;2023-07-24T00:10:06;98925.59;;;15.18;100.00
51439;BME280;38816;51.142;-0.974;2023-07-24T00:12:31;98911.06;;;15.11;100.00
51439;BME280;38816;51.142;-0.974;2023-07-24T00:14:57;98915.63;;;15.02;100.00
51439;BME280;38816;51.142;-0.974;2023-07-24T00:17:22;98920.97;;;14.94;100.00
51439;BME280;38816;51.142;-0.974;2023-07-24T00:19:48;98912.44;;;14.89;100.00
51439;BME280;38816;51.142;-0.974;2023-07-24T00:22:14;98916.03;;;14.83;100.00
51439;BME280;38816;51.142;-0.974;2023-07-24T00:24:39;98912.72;;;14.77;100.00
51439;BME280;38816;51.142;-0.974;2023-07-24T00:27:05;98906.84;;;14.70;100.00
51439;BME280;38816;51.142;-0.974;2023-07-24T00:29:30;98904.31;;;14.67;100.00
51439;BME280;38816;51.142;-0.974;2023-07-24T00:31:56;98912.97;;;14.66;100.00
51439;BME280;38816;51.142;-0.974;2023-07-24T00:34:21;98900.16;;;14.60;100.00
51439;BME280;38816;51.142;-0.974;2023-07-24T00:36:47;98901.81;;;14.64;100.00
51439;BME280;38816;51.142;-0.974;2023-07-24T00:39:15;98896.59;;;14.65;100.00
51439;BME280;38816;51.142;-0.974;2023-07-24T00:41:42;98901.81;;;14.64;100.00
51439;BME280;38816;51.142;-0.974;2023-07-24T00:44:08;98895.69;;;14.68;100.00
51439;BME280;38816;51.142;-0.974;2023-07-24T00:46:35;98906.84;;;14.70;100.00
51439;BME280;38816;51.142;-0.974;2023-07-24T00:49:02;98907.63;;;14.74;100.00
51439;BME280;38816;51.142;-0.974;2023-07-24T00:51:28;98899.88;;;14.72;100.00
51439;BME280;38816;51.142;-0.974;2023-07-24T00:54:03;98894.75;;;14.71;100.00
51439;BME280;38816;51.142;-0.974;2023-07-24T00:56:30;98891.38;;;14.68;100.00
51439;BME280;38816;51.142;-0.974;2023-07-24T00:58:56;98892.22;;;14.67;100.00
51439;BME280;38816;51.142;-0.974;2023-07-24T01:01:22;98888.78;;;14.67;100.00
51439;BME280;38816;51.142;-0.974;2023-07-24T01:03:49;98888.78;;;14.68;100.00
51439;BME280;38816;51.142;-0.974;2023-07-24T01:06:14;98885.25;;;14.73;100.00
51439;BME280;38816;51.142;-0.974;2023-07-24T01:08:40;98881.66;;;14.77;100.00
51439;BME280;38816;51.142;-0.974;2023-07-24T01:11:36;98881.66;;;14.78;100.00
51439;BME280;38816;51.142;-0.974;2023-07-24T01:14:27;98885.09;;;14.79;100.00
51439;BME280;38816;51.142;-0.974;2023-07-24T01:16:55;98886.78;;;14.80;100.00
51439;BME280;38816;51.142;-0.974;2023-07-24T01:19:35;98885.00;;;14.83;100.00
51439;BME280;38816;51.142;-0.974;2023-07-24T01:27:23;98895.47;;;14.77;100.00
51439;BME280;38816;51.142;-0.974;2023-07-24T01:29:49;98886.78;;;14.80;100.00
51439;BME280;38816;51.142;-0.974;2023-07-24T01:32:14;98886.78;;;14.80;100.00
51439;BME280;38816;51.142;-0.974;2023-07-24T01:34:40;98881.66;;;14.77;100.00
51439;BME280;38816;51.142;-0.974;2023-07-24T01:37:05;98876.59;;;14.74;100.00
51439;BME280;38816;51.142;-0.974;2023-07-24T01:39:32;98876.59;;;14.72;100.00
51439;BME280;38816;51.142;-0.974;2023-07-24T01:41:58;98891.22;;;14.75;100.00
51439;BME280;38816;51.142;-0.974;2023-07-24T01:44:24;98873.06;;;14.76;100.00
51439;BME280;38816;51.142;-0.974;2023-07-24T01:46:50;98877.38;;;14.77;100.00
51439;BME280;38816;51.142;-0.974;2023-07-24T01:49:15;98879.06;;;14.78;100.00
51439;BME280;38816;51.142;-0.974;2023-07-24T01:51:41;98872.19;;;14.77;100.00
51439;BME280;38816;51.142;-0.974;2023-07-24T01:54:06;98867.03;;;14.77;100.00
51439;BME280;38816;51.142;-0.974;2023-07-24T01:56:35;98869.63;;;14.77;100.00
51439;BME280;38816;51.142;-0.974;2023-07-24T01:59:01;98866.94;;;14.80;100.00
51439;BME280;38816;51.142;-0.974;2023-07-24T02:01:26;98867.81;;;14.79;100.00
51439;BME280;38816;51.142;-0.974;2023-07-24T02:03:52;98869.50;;;14.82;100.00
51439;BME280;38816;51.142;-0.974;2023-07-24T02:06:17;98867.78;;;14.82;100.00
51439;BME280;38816;51.142;-0.974;2023-07-24T02:08:43;98861.81;;;14.79;100.00
51439;BME280;38816;51.142;-0.974;2023-07-24T02:11:14;98855.78;;;14.78;100.00
51439;BME280;38816;51.142;-0.974;2023-07-24T02:13:40;98863.56;;;14.77;100.00
51439;BME280;38816;51.142;-0.974;2023-07-24T02:16:06;98855.03;;;14.73;100.00
51439;BME280;38816;51.142;-0.974;2023-07-24T02:18:31;98855.94;;;14.71;100.00
51439;BME280;38816;51.142;-0.974;2023-07-24T02:20:57;98850.94;;;14.63;100.00
51439;BME280;38816;51.142;-0.974;2023-07-24T02:23:22;98840.69;;;14.60;100.00
51439;BME280;38816;51.142;-0.974;2023-07-24T02:25:51;98850.13;;;14.61;100.00
51439;BME280;38816;51.142;-0.974;2023-07-24T02:28:18;98848.34;;;14.63;100.00
51439;BME280;38816;51.142;-0.974;2023-07-24T02:30:44;98845.72;;;14.66;100.00
51439;BME280;38816;51.142;-0.974;2023-07-24T02:33:11;98845.66;;;14.69;100.00
51439;BME280;38816;51.142;-0.974;2023-07-24T02:35:43;98842.97;;;14.72;100.00
51439;BME280;38816;51.142;-0.974;2023-07-24T02:38:08;98836.16;;;14.69;100.00
51439;BME280;38816;51.142;-0.974;2023-07-24T02:40:35;98836.09;;;14.71;100.00
51439;BME280;38816;51.142;-0.974;2023-07-24T02:43:01;98831.78;;;14.72;100.00
51439;BME280;38816;51.142;-0.974;2023-07-24T02:45:26;98836.09;;;14.71;100.00
51439;BME280;38816;51.142;-0.974;2023-07-24T02:47:52;98833.50;;;14.73;100.00
51439;BME280;38816;51.142;-0.974;2023-07-24T02:50:18;98840.31;;;14.75;100.00
51439;BME280;38816;51.142;-0.974;2023-07-24T02:52:43;98829.94;;;14.77;100.00
51439;BME280;38816;51.142;-0.974;2023-07-24T02:55:09;98830.72;;;14.80;100.00
51439;BME280;38816;51.142;-0.974;2023-07-24T02:57:34;98822.97;;;14.80;100.00
51439;BME280;38816;51.142;-0.974;2023-07-24T03:00:00;98838.31;;;14.88;100.00
51439;BME280;38816;51.142;-0.974;2023-07-24T03:02:25;98835.66;;;14.89;100.00
51439;BME280;38816;51.142;-0.974;2023-07-24T03:04:51;98838.19;;;14.92;100.00
51439;BME280;38816;51.142;-0.974;2023-07-24T03:07:16;98842.47;;;14.93;100.00
51439;BME280;38816;51.142;-0.974;2023-07-24T03:09:42;98838.19;;;14.92;100.00
51439;BME280;38816;51.142;-0.974;2023-07-24T03:12:08;98842.47;;;14.95;100.00
51439;BME280;38816;51.142;-0.974;2023-07-24T03:14:34;98833.81;;;14.94;100.00
51439;BME280;38816;51.142;-0.974;2023-07-24T03:16:59;98839.88;;;14.95;100.00
51439;BME280;38816;51.142;-0.974;2023-07-24T03:19:25;98844.19;;;14.94;100.00
51439;BME280;38816;51.142;-0.974;2023-07-24T03:21:50;98842.47;;;14.95;100.00
51439;BME280;38816;51.142;-0.974;2023-07-24T03:24:16;98838.94;;;14.98;100.00
51439;BME280;38816;51.142;-0.974;2023-07-24T03:26:42;98838.13;;;14.96;100.00
51439;BME280;38816;51.142;-0.974;2023-07-24T03:29:08;98835.53;;;14.96;100.00
51439;BME280;38816;51.142;-0.974;2023-07-24T03:31:33;98836.34;;;14.98;100.00
51439;BME280;38816;51.142;-0.974;2023-07-24T03:33:59;98828.66;;;14.94;100.00
51439;BME280;38816;51.142;-0.974;2023-07-24T03:36:24;98821.78;;;14.93;100.00
51439;BME280;38816;51.142;-0.974;2023-07-24T03:38:50;98821.81;;;14.92;100.00
51439;BME280;38816;51.142;-0.974;2023-07-24T03:41:15;98822.78;;;14.88;100.00
51439;BME280;38816;51.142;-0.974;2023-07-24T03:43:41;98821.09;;;14.85;100.00
51439;BME280;38816;51.142;-0.974;2023-07-24T03:46:07;98825.53;;;14.80;100.00
51439;BME280;38816;51.142;-0.974;2023-07-24T03:48:32;98823.00;;;14.79;100.00
51439;BME280;38816;51.142;-0.974;2023-07-24T03:50:59;98828.22;;;14.77;100.00
51439;BME280;38816;51.142;-0.974;2023-07-24T03:53:28;98820.47;;;14.77;100.00
51439;BME280;38816;51.142;-0.974;2023-07-24T03:55:54;98825.63;;;14.77;100.00
51439;BME280;38816;51.142;-0.974;2023-07-24T03:58:20;98824.81;;;14.75;100.00
51439;BME280;38816;51.142;-0.974;2023-07-24T04:00:46;98824.84;;;14.74;100.00
51439;BME280;38816;51.142;-0.974;2023-07-24T04:03:11;98831.72;;;14.75;100.00
51439;BME280;38816;51.142;-0.974;2023-07-24T04:05:37;98835.19;;;14.74;100.00
51439;BME280;38816;51.142;-0.974;2023-07-24T04:08:03;98829.19;;;14.72;100.00
51439;BME280;38816;51.142;-0.974;2023-07-24T04:10:29;98830.03;;;14.74;100.00
51439;BME280;38816;51.142;-0.974;2023-07-24T04:12:56;98827.44;;;14.72;100.00
51439;BME280;38816;51.142;-0.974;2023-07-24T04:15:22;98832.63;;;14.72;100.00
51439;BME280;38816;51.142;-0.974;2023-07-24T04:17:50;98831.03;;;14.68;100.00
51439;BME280;38816;51.142;-0.974;2023-07-24T04:20:16;98830.19;;;14.66;100.00
51439;BME280;38816;51.142;-0.974;2023-07-24T04:22:41;98837.06;;;14.67;100.00
51439;BME280;38816;51.142;-0.974;2023-07-24T04:25:07;98835.38;;;14.66;100.00
51439;BME280;38816;51.142;-0.974;2023-07-24T04:27:33;98834.50;;;14.65;100.00
51439;BME280;38816;51.142;-0.974;2023-07-24T04:29:58;98834.47;;;14.67;100.00
51439;BME280;38816;51.142;-0.974;2023-07-24T04:32:26;98832.72;;;14.69;100.00
51439;BME280;38816;51.142;-0.974;2023-07-24T04:34:53;98836.94;;;14.72;100.00
51439;BME280;38816;51.142;-0.974;2023-07-24T04:37:18;98837.78;;;14.72;100.00
51439;BME280;38816;51.142;-0.974;2023-07-24T04:39:44;98840.38;;;14.72;100.00
51439;BME280;38816;51.142;-0.974;2023-07-24T04:42:10;98830.91;;;14.73;100.00
51439;BME280;38816;51.142;-0.974;2023-07-24T04:44:35;98838.69;;;14.73;100.00
51439;BME280;38816;51.142;-0.974;2023-07-24T04:47:01;98838.69;;;14.73;100.00
51439;BME280;38816;51.142;-0.974;2023-07-24T04:49:30;98842.13;;;14.73;100.00
51439;BME280;38816;51.142;-0.974;2023-07-24T04:51:56;98843.81;;;14.74;100.00
51439;BME280;38816;51.142;-0.974;2023-07-24T04:54:22;98846.44;;;14.71;100.00
51439;BME280;38816;51.142;-0.974;2023-07-24T04:56:47;98846.44;;;14.71;100.00
51439;BME280;38816;51.142;-0.974;2023-07-24T04:59:13;98854.31;;;14.68;100.00
51439;BME280;38816;51.142;-0.974;2023-07-24T05:01:38;98850.03;;;14.65;100.00
51439;BME280;38816;51.142;-0.974;2023-07-24T05:04:04;98851.72;;;14.68;100.00
51439;BME280;38816;51.142;-0.974;2023-07-24T05:06:29;98851.72;;;14.66;100.00
51439;BME280;38816;51.142;-0.974;2023-07-24T05:08:54;98850.00;;;14.67;100.00
51439;BME280;38816;51.142;-0.974;2023-07-24T05:11:20;98853.47;;;14.66;100.00
51439;BME280;38816;51.142;-0.974;2023-07-24T05:13:46;98854.41;;;14.63;100.00
51439;BME280;38816;51.142;-0.974;2023-07-24T05:16:11;98855.47;;;14.55;100.00
51439;BME280;38816;51.142;-0.974;2023-07-24T05:18:37;98853.00;;;14.47;100.00
51439;BME280;38816;51.142;-0.974;2023-07-24T05:21:02;98853.94;;;14.43;100.00
51439;BME280;38816;51.142;-0.974;2023-07-24T05:23:28;98860.91;;;14.41;100.00
51439;BME280;38816;51.142;-0.974;2023-07-24T05:26:01;98858.41;;;14.35;100.00
51439;BME280;38816;51.142;-0.974;2023-07-24T05:28:27;98863.69;;;14.30;100.00
51439;BME280;38816;51.142;-0.974;2023-07-24T05:30:53;98862.78;;;14.31;100.00
51439;BME280;38816;51.142;-0.974;2023-07-24T05:33:19;98863.66;;;14.32;100.00
51439;BME280;38816;51.142;-0.974;2023-07-24T05:35:44;98869.59;;;14.35;100.00
51439;BME280;38816;51.142;-0.974;2023-07-24T05:38:10;98869.56;;;14.38;100.00
51439;BME280;38816;51.142;-0.974;2023-07-24T05:40:35;98872.22;;;14.34;100.00
51439;BME280;38816;51.142;-0.974;2023-07-24T05:43:01;98867.00;;;14.37;100.00
51439;BME280;38816;51.142;-0.974;2023-07-24T05:45:27;98870.44;;;14.37;100.00
51439;BME280;38816;51.142;-0.974;2023-07-24T05:47:53;98866.16;;;14.36;100.00
51439;BME280;38816;51.142;-0.974;2023-07-24T05:50:18;98866.06;;;14.39;100.00
51439;BME280;38816;51.142;-0.974;2023-07-24T05:52:44;98870.25;;;14.45;100.00
51439;BME280;38816;51.142;-0.974;2023-07-24T05:55:09;98869.34;;;14.48;100.00
51439;BME280;38816;51.142;-0.974;2023-07-24T05:57:35;98868.44;;;14.52;100.00
51439;BME280;38816;51.142;-0.974;2023-07-24T06:00:05;98865.81;;;14.55;100.00
51439;BME280;38816;51.142;-0.974;2023-07-24T06:02:30;98865.66;;;14.61;100.00
51439;BME280;38816;51.142;-0.974;2023-07-24T06:04:56;98860.34;;;14.67;100.00
51439;BME280;38816;51.142;-0.974;2023-07-24T06:07:22;98859.38;;;14.73;100.00
51439;BME280;38816;51.142;-0.974;2023-07-24T06:09:47;98857.44;;;14.81;100.00
51439;BME280;38816;51.142;-0.974;2023-07-24T06:12:13;98859.78;;;14.91;100.00
51439;BME280;38816;51.142;-0.974;2023-07-24T06:14:39;98857.88;;;15.00;100.00
51439;BME280;38816;51.142;-0.974;2023-07-24T06:17:04;98862.84;;;15.09;100.00
51439;BME280;38816;51.142;-0.974;2023-07-24T06:19:30;98857.44;;;15.18;100.00
51439;BME280;38816;51.142;-0.974;2023-07-24T06:21:56;98862.28;;;15.30;100.00
51439;BME280;38816;51.142;-0.974;2023-07-24T06:24:21;98856.94;;;15.38;100.00
51439;BME280;38816;51.142;-0.974;2023-07-24T06:26:49;98860.22;;;15.44;100.00
51439;BME280;38816;51.142;-0.974;2023-07-24T06:29:15;98860.13;;;15.48;100.00
51439;BME280;38816;51.142;-0.974;2023-07-24T06:31:41;98861.75;;;15.52;100.00
51439;BME280;38816;51.142;-0.974;2023-07-24T06:34:06;98868.69;;;15.51;100.00
51439;BME280;38816;51.142;-0.974;2023-07-24T06:36:32;98868.88;;;15.43;100.00
51439;BME280;38816;51.142;-0.974;2023-07-24T06:38:57;98864.69;;;15.38;100.00
51439;BME280;38816;51.142;-0.974;2023-07-24T06:41:23;98869.16;;;15.33;100.00
51439;BME280;38816;51.142;-0.974;2023-07-24T06:43:49;98877.09;;;15.25;100.00
51439;BME280;38816;51.142;-0.974;2023-07-24T06:46:15;98872.13;;;15.17;100.00
51439;BME280;38816;51.142;-0.974;2023-07-24T06:48:40;98877.38;;;15.14;100.00
51439;BME280;38816;51.142;-0.974;2023-07-24T06:51:06;98879.22;;;15.08;100.00
51439;BME280;38816;51.142;-0.974;2023-07-24T06:53:31;98875.94;;;15.01;100.00
51439;BME280;38816;51.142;-0.974;2023-07-24T06:55:57;98878.38;;;15.09;100.00
51439;BME280;38816;51.142;-0.974;2023-07-24T06:58:22;98882.44;;;15.19;100.00
51439;BME280;38816;51.142;-0.974;2023-07-24T07:00:47;98878.66;;;15.32;100.00
51439;BME280;38816;51.142;-0.974;2023-07-24T07:03:13;98881.00;;;15.41;100.00
51439;BME280;38816;51.142;-0.974;2023-07-24T07:05:38;98885.13;;;15.49;100.00
51439;BME280;38816;51.142;-0.974;2023-07-24T07:08:04;98886.75;;;15.54;100.00
51439;BME280;38816;51.142;-0.974;2023-07-24T07:10:33;98891.81;;;15.57;100.00
51439;BME280;38816;51.142;-0.974;2023-07-24T07:12:58;98898.75;;;15.57;100.00
51439;BME280;38816;51.142;-0.974;2023-07-24T07:15:24;98895.25;;;15.58;100.00
51439;BME280;38816;51.142;-0.974;2023-07-24T07:17:49;98903.97;;;15.55;100.00
51439;BME280;38816;51.142;-0.974;2023-07-24T07:20:15;98908.44;;;15.49;100.00
51439;BME280;38816;51.142;-0.974;2023-07-24T07:22:40;98900.03;;;15.40;100.00
51439;BME280;38816;51.142;-0.974;2023-07-24T07:25:06;98905.22;;;15.39;100.00
51439;BME280;38816;51.142;-0.974;2023-07-24T07:27:31;98906.91;;;15.41;100.00
51439;BME280;38816;51.142;-0.974;2023-07-24T07:29:57;98903.44;;;15.42;100.00
51439;BME280;38816;51.142;-0.974;2023-07-24T07:32:23;98905.06;;;15.47;100.00
51439;BME280;38816;51.142;-0.974;2023-07-24T07:34:48;98905.06;;;15.47;100.00
51439;BME280;38816;51.142;-0.974;2023-07-24T07:37:14;98903.34;;;15.45;100.00
51439;BME280;38816;51.142;-0.974;2023-07-24T07:39:39;98893.91;;;15.43;100.00
51439;BME280;38816;51.142;-0.974;2023-07-24T07:42:05;98899.91;;;15.45;100.00
51439;BME280;38816;51.142;-0.974;2023-07-24T07:44:31;98905.84;;;15.49;100.00
51439;BME280;38816;51.142;-0.974;2023-07-24T07:46:57;98906.75;;;15.48;100.00
51439;BME280;38816;51.142;-0.974;2023-07-24T07:49:22;98902.28;;;15.53;100.00
51439;BME280;38816;51.142;-0.974;2023-07-24T07:51:48;98907.34;;;15.59;100.00
51439;BME280;38816;51.142;-0.974;2023-07-24T07:54:13;98906.31;;;15.66;100.00
51439;BME280;38816;51.142;-0.974;2023-07-24T07:56:40;98908.78;;;15.70;100.00
51439;BME280;38816;51.142;-0.974;2023-07-24T07:59:06;98908.75;;;15.72;100.00
51439;BME280;38816;51.142;-0.974;2023-07-24T08:01:32;98906.78;;;15.82;100.00
51439;BME280;38816;51.142;-0.974;2023-07-24T08:03:57;98910.78;;;15.93;100.00
51439;BME280;38816;51.142;-0.974;2023-07-24T08:06:23;98911.53;;;15.99;100.00
51439;BME280;38816;51.142;-0.974;2023-07-24T08:08:50;98906.09;;;16.08;100.00
51439;BME280;38816;51.142;-0.974;2023-07-24T08:11:18;98908.16;;;16.26;100.00
51439;BME280;38816;51.142;-0.974;2023-07-24T08:13:45;98908.50;;;16.45;100.00
51439;BME280;38816;51.142;-0.974;2023-07-24T08:16:14;98912.19;;;16.66;100.00
51439;BME280;38816;51.142;-0.974;2023-07-24T08:18:47;98913.47;;;16.82;100.00
51439;BME280;38816;51.142;-0.974;2023-07-24T08:21:15;98915.50;;;17.01;100.00
51439;BME280;38816;51.142;-0.974;2023-07-24T08:23:41;98920.63;;;17.30;100.00
51439;BME280;38816;51.142;-0.974;2023-07-24T08:26:07;98918.03;;;17.57;100.00
51439;BME280;38816;51.142;-0.974;2023-07-24T08:28:36;98925.09;;;17.80;100.00
51439;BME280;38816;51.142;-0.974;2023-07-24T08:31:01;98920.19;;;17.95;100.00
51439;BME280;38816;51.142;-0.974;2023-07-24T08:33:28;98915.34;;;18.10;100.00
51439;BME280;38816;51.142;-0.974;2023-07-24T08:36:00;98919.28;;;18.21;100.00
51439;BME280;38816;51.142;-0.974;2023-07-24T08:38:26;98920.81;;;18.27;100.00
51439;BME280;38816;51.142;-0.974;2023-07-24T08:43:28;98915.59;;;18.51;100.00
51439;BME280;38816;51.142;-0.974;2023-07-24T08:45:54;98919.41;;;18.65;100.00
51439;BME280;38816;51.142;-0.974;2023-07-24T08:48:21;98919.19;;;18.71;100.00
51439;BME280;38816;51.142;-0.974;2023-07-24T08:50:50;98916.75;;;18.90;100.00
51439;BME280;38816;51.142;-0.974;2023-07-24T08:53:17;98920.09;;;19.16;100.00
51439;BME280;38816;51.142;-0.974;2023-07-24T08:55:45;98915.63;;;19.62;100.00
51439;BME280;38816;51.142;-0.974;2023-07-24T08:58:13;98917.94;;;19.69;100.00
51439;BME280;38816;51.142;-0.974;2023-07-24T09:00:39;98912.63;;;19.71;100.00
51439;BME280;38816;51.142;-0.974;2023-07-24T09:03:05;98916.00;;;19.53;100.00
51439;BME280;38816;51.142;-0.974;2023-07-24T09:05:30;98917.59;;;19.13;100.00
51439;BME280;38816;51.142;-0.974;2023-07-24T09:07:56;98926.06;;;18.74;100.00
51439;BME280;38816;51.142;-0.974;2023-07-24T09:10:26;98926.94;;;18.26;100.00
51439;BME280;38816;51.142;-0.974;2023-07-24T09:12:52;98928.13;;;17.92;100.00
51439;BME280;38816;51.142;-0.974;2023-07-24T09:15:17;98933.97;;;17.72;100.00
51439;BME280;38816;51.142;-0.974;2023-07-24T09:17:50;98933.81;;;17.51;100.00
51439;BME280;38816;51.142;-0.974;2023-07-24T09:20:17;98934.63;;;17.26;100.00
51439;BME280;38816;51.142;-0.974;2023-07-24T09:22:53;98938.78;;;17.04;100.00
51439;BME280;38816;51.142;-0.974;2023-07-24T09:25:30;98937.25;;;16.96;100.00
51439;BME280;38816;51.142;-0.974;2023-07-24T09:27:57;98934.72;;;16.95;100.00
51439;BME280;38816;51.142;-0.974;2023-07-24T09:30:23;98939.97;;;16.93;100.00
51439;BME280;38816;51.142;-0.974;2023-07-24T09:32:55;98939.63;;;17.04;100.00
51439;BME280;38816;51.142;-0.974;2023-07-24T09:35:21;98941.56;;;17.26;100.00
51439;BME280;38816;51.142;-0.974;2023-07-24T09:38:05;98951.00;;;17.55;100.00
51439;BME280;38816;51.142;-0.974;2023-07-24T09:40:39;98961.50;;;17.80;100.00
51439;BME280;38816;51.142;-0.974;2023-07-24T09:43:20;98960.72;;;17.76;100.00
51439;BME280;38816;51.142;-0.974;2023-07-24T09:45:47;98970.88;;;17.56;100.00
51439;BME280;38816;51.142;-0.974;2023-07-24T09:48:14;98971.75;;;17.28;100.00
51439;BME280;38816;51.142;-0.974;2023-07-24T09:50:41;98963.22;;;16.96;100.00
51439;BME280;38816;51.142;-0.974;2023-07-24T09:56:08;98986.22;;;16.48;100.00
51439;BME280;38816;51.142;-0.974;2023-07-24T09:58:36;98980.78;;;16.26;100.00
51439;BME280;38816;51.142;-0.974;2023-07-24T10:01:03;98988.03;;;16.12;100.00
51439;BME280;38816;51.142;-0.974;2023-07-24T10:03:34;99000.97;;;15.79;100.00
51439;BME280;38816;51.142;-0.974;2023-07-24T10:06:01;99003.41;;;15.50;100.00
51439;BME280;38816;51.142;-0.974;2023-07-24T10:08:27;99002.88;;;15.34;100.00
51439;BME280;38816;51.142;-0.974;2023-07-24T10:10:58;99009.06;;;15.28;100.00
51439;BME280;38816;51.142;-0.974;2023-07-24T10:13:26;99007.38;;;15.27;100.00
51439;BME280;38816;51.142;-0.974;2023-07-24T10:15:52;99012.56;;;15.27;100.00
51439;BME280;38816;51.142;-0.974;2023-07-24T10:18:26;99022.81;;;15.30;100.00
51439;BME280;38816;51.142;-0.974;2023-07-24T10:21:04;99018.69;;;15.22;100.00
51439;BME280;38816;51.142;-0.974;2023-07-24T10:23:30;99025.72;;;15.16;100.00
51439;BME280;38816;51.142;-0.974;2023-07-24T10:26:02;99030.09;;;15.13;100.00
51439;BME280;38816;51.142;-0.974;2023-07-24T10:28:36;99037.06;;;15.11;100.00
51439;BME280;38816;51.142;-0.974;2023-07-24T10:31:20;99037.25;;;15.02;100.00
51439;BME280;38816;51.142;-0.974;2023-07-24T10:33:46;99039.91;;;14.99;100.00
51439;BME280;38816;51.142;-0.974;2023-07-24T10:36:12;99041.44;;;15.09;100.00
51439;BME280;38816;51.142;-0.974;2023-07-24T10:38:43;99047.56;;;15.03;100.00
51439;BME280;38816;51.142;-0.974;2023-07-24T10:41:10;99043.56;;;14.88;100.00
51439;BME280;38816;51.142;-0.974;2023-07-24T10:43:46;99058.47;;;14.77;100.00
51439;BME280;38816;51.142;-0.974;2023-07-24T10:46:13;99059.38;;;14.75;100.00
51439;BME280;38816;51.142;-0.974;2023-07-24T10:48:46;99057.53;;;14.80;100.00
51439;BME280;38816;51.142;-0.974;2023-07-24T10:51:13;99070.28;;;14.90;100.00
51439;BME280;38816;51.142;-0.974;2023-07-24T10:53:49;99059.59;;;15.06;100.00
51439;BME280;38816;51.142;-0.974;2023-07-24T10:56:15;99065.34;;;15.20;100.00
51439;BME280;38816;51.142;-0.974;2023-07-24T10:58:41;99069.09;;;15.45;100.00
51439;BME280;38816;51.142;-0.974;2023-07-24T11:01:08;99064.88;;;15.80;100.00
51439;BME280;38816;51.142;-0.974;2023-07-24T11:03:36;99065.88;;;16.10;100.00
51439;BME280;38816;51.142;-0.974;2023-07-24T11:06:05;99077.88;;;16.49;100.00
51439;BME280;38816;51.142;-0.974;2023-07-24T11:08:37;99072.00;;;16.75;100.00
51439;BME280;38816;51.142;-0.974;2023-07-24T11:11:05;99078.41;;;16.94;100.00
51439;BME280;38816;51.142;-0.974;2023-07-24T11:13:31;99079.75;;;17.07;100.00
51439;BME280;38816;51.142;-0.974;2023-07-24T11:16:04;99088.41;;;17.06;100.00
51439;BME280;38816;51.142;-0.974;2023-07-24T11:18:30;99090.97;;;16.77;100.00
51439;BME280;38816;51.142;-0.974;2023-07-24T11:20:56;99092.91;;;16.36;100.00
51439;BME280;38816;51.142;-0.974;2023-07-24T11:23:23;99109.16;;;16.07;100.00
51439;BME280;38816;51.142;-0.974;2023-07-24T11:25:53;99109.00;;;15.77;100.00
51439;BME280;38816;51.142;-0.974;2023-07-24T11:28:20;99123.28;;;15.55;100.00
51439;BME280;38816;51.142;-0.974;2023-07-24T11:30:45;99113.94;;;15.48;100.00
51439;BME280;38816;51.142;-0.974;2023-07-24T11:33:14;99117.22;;;15.56;100.00
51439;BME280;38816;51.142;-0.974;2023-07-24T11:35:40;99112.41;;;15.79;100.00
51439;BME280;38816;51.142;-0.974;2023-07-24T11:38:08;99118.56;;;16.12;100.00
51439;BME280;38816;51.142;-0.974;2023-07-24T11:43:04;99115.72;;;16.88;100.00
51439;BME280;38816;51.142;-0.974;2023-07-24T11:45:43;99124.81;;;17.05;100.00
51439;BME280;38816;51.142;-0.974;2023-07-24T11:48:10;99133.63;;;16.99;100.00
51439;BME280;38816;51.142;-0.974;2023-07-24T11:50:47;99126.03;;;16.91;100.00
51439;BME280;38816;51.142;-0.974;2023-07-24T11:53:27;99134.34;;;17.04;100.00
51439;BME280;38816;51.142;-0.974;2023-07-24T11:55:57;99134.03;;;17.15;100.00
51439;BME280;38816;51.142;-0.974;2023-07-24T11:58:26;99137.91;;;17.31;100.00
51439;BME280;38816;51.142;-0.974;2023-07-24T12:00:52;99143.03;;;17.34;100.00
51439;BME280;38816;51.142;-0.974;2023-07-24T12:03:22;99138.78;;;17.32;100.00
51439;BME280;38816;51.142;-0.974;2023-07-24T12:05:52;99133.84;;;17.23;100.00
51439;BME280;38816;51.142;-0.974;2023-07-24T12:08:30;99138.50;;;17.11;100.00
51439;BME280;38816;51.142;-0.974;2023-07-24T12:10:56;99143.25;;;16.95;100.00
51439;BME280;38816;51.142;-0.974;2023-07-24T12:13:21;99148.16;;;16.74;100.00
51439;BME280;38816;51.142;-0.974;2023-07-24T12:15:48;99149.66;;;16.48;100.00
51439;BME280;38816;51.142;-0.974;2023-07-24T12:18:14;99157.81;;;16.33;100.00
51439;BME280;38816;51.142;-0.974;2023-07-24T12:20:40;99158.88;;;16.24;100.00
51439;BME280;38816;51.142;-0.974;2023-07-24T12:23:07;99155.38;;;16.25;100.00
51439;BME280;38816;51.142;-0.974;2023-07-24T12:25:32;99161.28;;;16.32;100.00
51439;BME280;38816;51.142;-0.974;2023-07-24T12:27:58;99145.22;;;16.52;100.00
51439;BME280;38816;51.142;-0.974;2023-07-24T12:30:24;99148.09;;;16.77;100.00
51439;BME280;38816;51.142;-0.974;2023-07-24T12:32:49;99148.13;;;17.08;100.00
51439;BME280;38816;51.142;-0.974;2023-07-24T12:35:16;99145.25;;;17.46;100.00
51439;BME280;38816;51.142;-0.974;2023-07-24T12:37:42;99146.84;;;17.82;100.00
51439;BME280;38816;51.142;-0.974;2023-07-24T12:40:08;99140.06;;;18.06;100.00
51439;BME280;38816;51.142;-0.974;2023-07-24T12:42:34;99137.13;;;18.41;100.00
51439;BME280;38816;51.142;-0.974;2023-07-24T12:45:00;99136.88;;;18.76;100.00
51439;BME280;38816;51.142;-0.974;2023-07-24T12:47:28;99151.47;;;19.05;100.00
51439;BME280;38816;51.142;-0.974;2023-07-24T12:49:53;99158.06;;;19.15;100.00
51439;BME280;38816;51.142;-0.974;2023-07-24T12:52:21;99152.00;;;19.14;100.00